Time;durP1;ratioP1;P1;durP2;ratioP2;P2;SDS_P1;SDS_P2;PMS_P1;PMS_P2;Temp;Humidity;BMP_temperature;BMP_pressure;BME280_temperature;BME280_humidity;BME280_pressure;Samples;Min_cycle;Max_cycle;Signal;HPM_P1;HPM_P2
2022/11/20 00:00:02;;;;;;;4.20;2.17;;;7.30;98.00;;;;;;5033605;28;20460;-64
2022/11/20 00:02:29;;;;;;;2.23;1.80;;;7.30;98.00;;;;;;5034667;28;20507;-64
2022/11/20 00:04:56;;;;;;;3.80;2.40;;;7.20;98.00;;;;;;5034703;28;20459;-64
2022/11/20 00:07:23;;;;;;;2.77;1.87;;;7.20;98.00;;;;;;5034402;28;20962;-64
2022/11/20 00:09:52;;;;;;;3.27;2.33;;;7.10;98.00;;;;;;5034631;28;20461;-65
2022/11/20 00:12:20;;;;;;;2.33;1.97;;;7.10;98.00;;;;;;5034527;28;20852;-64
2022/11/20 00:14:47;;;;;;;3.10;2.13;;;7.00;98.00;;;;;;5034452;28;20455;-64
2022/11/20 00:17:16;;;;;;;2.10;1.90;;;7.00;98.00;;;;;;5034266;28;20501;-64
2022/11/20 00:19:43;;;;;;;3.13;2.33;;;7.00;98.00;;;;;;5034321;28;20459;-65
2022/11/20 00:22:10;;;;;;;3.23;2.40;;;6.90;98.00;;;;;;5034107;28;20883;-64
2022/11/20 00:24:37;;;;;;;3.03;2.10;;;6.90;98.00;;;;;;5034320;28;20442;-64
2022/11/20 00:27:04;;;;;;;2.37;2.07;;;6.80;98.00;;;;;;5034203;28;20457;-64
2022/11/20 00:29:31;;;;;;;3.53;2.20;;;6.80;98.00;;;;;;5034274;28;20946;-65
2022/11/20 00:32:00;;;;;;;4.90;1.90;;;6.60;98.00;;;;;;5034052;28;20515;-64
2022/11/20 00:34:28;;;;;;;5.40;2.53;;;6.60;98.00;;;;;;5034034;28;21018;-64
2022/11/20 00:37:04;;;;;;;4.03;2.20;;;6.50;98.00;;;;;;5033976;28;20464;-64
2022/11/20 00:39:31;;;;;;;2.87;2.10;;;6.30;98.00;;;;;;5033926;28;20464;-64
2022/11/20 00:41:58;;;;;;;3.10;2.00;;;6.40;98.00;;;;;;5033838;28;20496;-65
2022/11/20 00:44:25;;;;;;;2.90;1.77;;;6.40;98.00;;;;;;5033964;28;20471;-64
2022/11/20 00:46:53;;;;;;;4.60;2.43;;;6.50;98.00;;;;;;5033855;28;20459;-64
2022/11/20 00:49:20;;;;;;;3.90;2.10;;;6.40;98.00;;;;;;5032860;28;20465;-64
2022/11/20 00:51:48;;;;;;;3.03;2.17;;;6.40;98.00;;;;;;5034052;28;20463;-64
2022/11/20 00:54:16;;;;;;;4.47;2.37;;;6.50;98.00;;;;;;5033975;28;20468;-64
2022/11/20 00:56:43;;;;;;;3.10;2.23;;;6.50;98.00;;;;;;5032402;28;20832;-64
2022/11/20 00:59:10;;;;;;;4.67;2.00;;;6.60;98.00;;;;;;5033627;28;20456;-64
2022/11/20 01:01:38;;;;;;;2.80;2.07;;;6.70;98.00;;;;;;5032081;28;21000;-64
2022/11/20 01:04:05;;;;;;;4.50;2.07;;;6.60;98.00;;;;;;5033288;28;20507;-64
2022/11/20 01:06:37;;;;;;;3.87;2.00;;;6.60;98.00;;;;;;5033214;28;20460;-64
2022/11/20 01:09:10;;;;;;;4.67;2.50;;;6.80;98.00;;;;;;5033412;28;20486;-64
2022/11/20 01:11:40;;;;;;;8.60;2.90;;;6.80;98.00;;;;;;5033342;28;20464;-64
2022/11/20 01:14:10;;;;;;;2.70;1.60;;;6.70;98.00;;;;;;5033196;28;20462;-64
2022/11/20 01:16:39;;;;;;;2.20;2.10;;;6.80;98.00;;;;;;5033304;28;20482;-64
2022/11/20 01:19:08;;;;;;;6.27;2.30;;;6.90;98.00;;;;;;5032917;28;20463;-64
2022/11/20 01:21:37;;;;;;;3.77;2.00;;;7.00;98.00;;;;;;5033098;28;20504;-65
2022/11/20 01:24:07;;;;;;;2.33;1.83;;;7.10;98.00;;;;;;5033178;28;20489;-64
2022/11/20 01:26:37;;;;;;;2.80;2.00;;;7.00;98.00;;;;;;5033009;28;20603;-64
2022/11/20 01:29:06;;;;;;;3.90;2.50;;;7.00;98.00;;;;;;5033006;28;20452;-64
2022/11/20 01:31:36;;;;;;;3.63;1.63;;;6.80;98.00;;;;;;5032969;28;20460;-64
2022/11/20 01:34:06;;;;;;;5.80;1.90;;;6.90;98.00;;;;;;5033100;28;20465;-64
2022/11/20 01:36:35;;;;;;;3.90;2.33;;;7.00;98.00;;;;;;5032833;28;20459;-64
2022/11/20 01:39:08;;;;;;;4.10;2.37;;;7.10;98.00;;;;;;5032984;28;20494;-64
2022/11/20 01:44:23;;;;;;;3.23;1.80;;;7.00;98.00;;;;;;5032997;28;20459;-64
2022/11/20 01:46:57;;;;;;;3.87;2.30;;;7.10;98.00;;;;;;5031717;28;20833;-64
2022/11/20 01:49:29;;;;;;;2.07;1.60;;;7.10;98.00;;;;;;5032782;28;20458;-64
2022/11/20 01:52:01;;;;;;;6.50;2.57;;;7.10;98.00;;;;;;5032426;28;20858;-64
2022/11/20 01:54:37;;;;;;;2.27;2.07;;;7.10;98.00;;;;;;5032565;28;20466;-65
2022/11/20 01:57:06;;;;;;;3.67;1.77;;;7.10;98.00;;;;;;5032404;28;20459;-64
2022/11/20 01:59:34;;;;;;;6.60;2.80;;;7.20;98.00;;;;;;5032280;28;20531;-64
2022/11/20 02:02:01;;;;;;;2.47;1.73;;;7.20;98.00;;;;;;5032014;28;20489;-64
2022/11/20 02:04:28;;;;;;;4.93;2.10;;;7.20;98.00;;;;;;5032403;28;20460;-64
2022/11/20 02:07:00;;;;;;;2.13;1.83;;;7.10;98.00;;;;;;5032163;28;20519;-64
2022/11/20 02:09:29;;;;;;;4.03;2.37;;;7.10;98.00;;;;;;5032360;28;20493;-64
2022/11/20 02:11:57;;;;;;;2.07;1.30;;;7.00;98.00;;;;;;5032023;28;20991;-64
2022/11/20 02:14:24;;;;;;;2.63;1.57;;;7.10;98.00;;;;;;5032206;28;20455;-64
2022/11/20 02:16:56;;;;;;;2.93;2.00;;;7.20;98.00;;;;;;5032127;28;20812;-64
2022/11/20 02:19:27;;;;;;;3.10;1.73;;;7.10;98.00;;;;;;5031642;28;20461;-64
2022/11/20 02:22:01;;;;;;;1.60;1.43;;;7.10;98.00;;;;;;5032052;28;20494;-64
2022/11/20 02:24:30;;;;;;;1.83;1.10;;;7.00;98.00;;;;;;5032370;28;20467;-64
2022/11/20 02:27:02;;;;;;;1.73;1.60;;;6.90;98.00;;;;;;5030854;28;20461;-64
2022/11/20 02:29:38;;;;;;;1.60;1.30;;;6.90;98.00;;;;;;5032192;28;20486;-64
2022/11/20 02:32:07;;;;;;;3.50;1.93;;;6.90;98.00;;;;;;5032129;28;20521;-64
2022/11/20 02:34:34;;;;;;;2.53;1.60;;;6.90;98.00;;;;;;5032298;28;20462;-64
2022/11/20 02:37:01;;;;;;;3.13;1.30;;;7.00;98.00;;;;;;5031794;28;20956;-64
2022/11/20 02:39:30;;;;;;;1.57;1.50;;;7.00;98.00;;;;;;5030639;28;20449;-64
2022/11/20 02:41:57;;;;;;;1.20;1.00;;;7.00;98.00;;;;;;5031657;28;20483;-64
2022/11/20 02:44:25;;;;;;;1.77;1.53;;;7.00;98.00;;;;;;5031622;28;20574;-64
2022/11/20 02:46:54;;;;;;;1.53;1.10;;;6.90;98.00;;;;;;5031782;28;20644;-64
2022/11/20 02:49:21;;;;;;;2.13;1.63;;;6.90;98.00;;;;;;5031817;28;20498;-64
2022/11/20 02:51:48;;;;;;;2.70;1.60;;;6.80;98.00;;;;;;5031683;28;20486;-64
2022/11/20 02:54:15;;;;;;;1.90;1.33;;;6.80;98.00;;;;;;5031642;28;20466;-64
2022/11/20 02:56:43;;;;;;;2.37;1.73;;;6.80;98.00;;;;;;5031638;28;20461;-64
2022/11/20 02:59:11;;;;;;;1.97;1.40;;;6.70;98.00;;;;;;5031700;28;20462;-64
2022/11/20 03:01:38;;;;;;;1.60;1.57;;;6.70;98.00;;;;;;5031537;28;20488;-64
2022/11/20 03:04:05;;;;;;;1.30;1.23;;;6.70;98.00;;;;;;5031543;28;20462;-64
2022/11/20 03:06:33;;;;;;;1.67;1.60;;;6.70;98.00;;;;;;5031641;28;20813;-64
2022/11/20 03:09:00;;;;;;;3.93;1.80;;;6.70;98.00;;;;;;5031565;28;20510;-64
2022/11/20 03:11:28;;;;;;;7.00;1.80;;;6.80;98.00;;;;;;5031502;28;20457;-64
2022/11/20 03:13:57;;;;;;;1.97;1.30;;;6.70;98.00;;;;;;5030376;28;20516;-64
2022/11/20 03:16:24;;;;;;;1.80;1.43;;;6.80;98.00;;;;;;5031682;28;20459;-64
2022/11/20 03:18:53;;;;;;;2.60;1.70;;;6.70;98.00;;;;;;5031661;28;20459;-64
2022/11/20 03:21:23;;;;;;;1.97;1.43;;;6.80;98.00;;;;;;5031571;28;20569;-64
2022/11/20 03:23:50;;;;;;;1.70;1.40;;;6.80;98.00;;;;;;5031611;28;20487;-64
2022/11/20 03:26:21;;;;;;;2.13;1.63;;;6.80;98.00;;;;;;5030498;28;20455;-64
2022/11/20 03:28:50;;;;;;;2.33;1.63;;;6.70;98.00;;;;;;5030255;28;20998;-64
2022/11/20 03:31:20;;;;;;;2.53;1.30;;;6.80;98.00;;;;;;5033090;28;20470;-64
2022/11/20 03:33:47;;;;;;;2.03;1.40;;;6.80;98.00;;;;;;5035641;28;20467;-64
2022/11/20 03:36:16;;;;;;;1.40;1.30;;;6.90;98.00;;;;;;5035291;28;20462;-64
2022/11/20 03:38:43;;;;;;;1.70;1.60;;;6.90;98.00;;;;;;5035130;28;20827;-64
2022/11/20 03:41:12;;;;;;;2.37;1.47;;;7.00;98.00;;;;;;5017710;28;20946;-64
2022/11/20 03:43:39;;;;;;;2.03;1.40;;;7.00;98.00;;;;;;5034747;28;20520;-64
2022/11/20 03:46:07;;;;;;;3.50;1.70;;;7.00;98.00;;;;;;5034761;28;20463;-64
2022/11/20 03:48:37;;;;;;;1.73;1.50;;;7.00;98.00;;;;;;5034667;28;20452;-64
2022/11/20 03:51:11;;;;;;;1.40;1.20;;;7.00;98.00;;;;;;5034813;28;20468;-64
2022/11/20 03:53:39;;;;;;;2.50;1.83;;;7.00;98.00;;;;;;5034709;28;20471;-64
2022/11/20 03:56:07;;;;;;;1.47;1.20;;;7.10;98.00;;;;;;5034719;28;20546;-64
2022/11/20 03:58:35;;;;;;;1.30;1.30;;;7.10;98.00;;;;;;5034948;28;20472;-64
2022/11/20 04:01:08;;;;;;;2.97;1.87;;;7.10;98.00;;;;;;5034439;28;20493;-64
2022/11/20 04:03:37;;;;;;;2.70;1.50;;;7.10;98.00;;;;;;5033419;28;20474;-64
2022/11/20 04:06:06;;;;;;;1.30;1.30;;;7.10;98.00;;;;;;5034530;28;20470;-64
2022/11/20 04:08:34;;;;;;;3.73;1.77;;;7.10;98.00;;;;;;5034484;28;20882;-64
2022/11/20 04:11:13;;;;;;;1.80;1.43;;;7.10;98.00;;;;;;5034477;28;20466;-64
2022/11/20 04:13:40;;;;;;;2.40;1.40;;;7.10;98.00;;;;;;5034629;28;20801;-64
2022/11/20 04:16:09;;;;;;;1.50;1.50;;;7.00;98.00;;;;;;5034308;28;20455;-64
2022/11/20 04:18:37;;;;;;;1.60;1.33;;;7.10;98.00;;;;;;5033307;28;20454;-64
2022/11/20 04:21:06;;;;;;;1.40;1.40;;;7.00;98.00;;;;;;5034347;28;20459;-64
2022/11/20 04:23:34;;;;;;;1.70;1.40;;;7.00;98.00;;;;;;5034440;28;20523;-64
2022/11/20 04:26:03;;;;;;;1.90;1.40;;;7.00;98.00;;;;;;5033218;28;20482;-64
2022/11/20 04:28:30;;;;;;;1.20;1.10;;;7.10;98.00;;;;;;5034351;28;20467;-64
2022/11/20 04:31:04;;;;;;;1.30;1.20;;;7.10;98.00;;;;;;5034234;28;20457;-64
2022/11/20 04:33:31;;;;;;;1.93;1.27;;;7.10;98.00;;;;;;5034138;28;20462;-64
2022/11/20 04:36:03;;;;;;;2.03;1.40;;;7.00;98.00;;;;;;5034102;28;21047;-64
2022/11/20 04:38:31;;;;;;;5.23;1.73;;;7.00;98.00;;;;;;5033919;28;20458;-64
2022/11/20 04:40:59;;;;;;;1.77;1.37;;;7.00;98.00;;;;;;5033866;28;20472;-64
2022/11/20 04:43:26;;;;;;;4.70;2.60;;;7.00;98.00;;;;;;5033119;28;20997;-64
2022/11/20 04:45:54;;;;;;;1.40;1.10;;;7.00;98.00;;;;;;5033691;28;21012;-64
2022/11/20 04:48:21;;;;;;;1.70;1.43;;;7.00;98.00;;;;;;5033869;28;20463;-64
2022/11/20 04:50:49;;;;;;;1.77;1.37;;;6.90;98.00;;;;;;5033796;28;20461;-64
2022/11/20 04:53:17;;;;;;;2.27;1.50;;;6.90;98.00;;;;;;5032572;28;20456;-64
2022/11/20 04:55:44;;;;;;;1.77;1.30;;;6.90;98.00;;;;;;5032366;28;20458;-64
2022/11/20 04:58:11;;;;;;;2.20;1.23;;;7.00;98.00;;;;;;5033651;28;20941;-64
2022/11/20 05:00:39;;;;;;;1.47;1.33;;;7.00;98.00;;;;;;5032360;28;20464;-64
2022/11/20 05:03:10;;;;;;;2.33;1.40;;;7.10;98.00;;;;;;5033444;28;20482;-64
2022/11/20 05:05:37;;;;;;;1.60;1.20;;;7.00;98.00;;;;;;5033611;28;20473;-64
2022/11/20 05:08:04;;;;;;;3.07;1.57;;;7.10;98.00;;;;;;5033433;28;20955;-64
2022/11/20 05:10:33;;;;;;;1.53;1.37;;;7.10;98.00;;;;;;5033547;28;20455;-64
2022/11/20 05:13:00;;;;;;;4.50;1.77;;;7.10;98.00;;;;;;5033298;28;20463;-64
2022/11/20 05:15:27;;;;;;;2.47;1.67;;;7.10;98.00;;;;;;5033595;28;20453;-64
2022/11/20 05:17:54;;;;;;;1.40;1.20;;;7.10;98.00;;;;;;5033363;28;20491;-64
2022/11/20 05:20:21;;;;;;;1.57;1.30;;;7.10;98.00;;;;;;5033665;28;20455;-64
2022/11/20 05:22:48;;;;;;;2.37;1.40;;;7.10;98.00;;;;;;5032906;28;20512;-64
2022/11/20 05:25:16;;;;;;;4.37;1.70;;;7.10;98.00;;;;;;5032799;28;20530;-64
2022/11/20 05:27:44;;;;;;;1.47;1.30;;;7.10;98.00;;;;;;5032716;28;20888;-64
2022/11/20 05:30:13;;;;;;;2.23;1.50;;;7.10;98.00;;;;;;5032732;28;20795;-64
2022/11/20 05:32:40;;;;;;;4.10;1.60;;;7.10;98.00;;;;;;5032708;28;20462;-64
2022/11/20 05:35:07;;;;;;;2.10;1.30;;;7.10;98.00;;;;;;5032802;28;20467;-64
2022/11/20 05:37:34;;;;;;;1.47;1.43;;;7.10;98.00;;;;;;5032890;28;20464;-64
2022/11/20 05:40:01;;;;;;;2.33;1.60;;;7.10;98.00;;;;;;5032906;28;20455;-64
2022/11/20 05:42:31;;;;;;;4.77;1.63;;;7.00;98.00;;;;;;5031415;28;20857;-64
2022/11/20 05:45:01;;;;;;;2.33;1.57;;;7.00;98.00;;;;;;5032531;28;20474;-64
2022/11/20 05:47:29;;;;;;;3.40;1.50;;;7.00;98.00;;;;;;5032506;28;20475;-64
2022/11/20 05:49:56;;;;;;;1.60;1.23;;;7.00;98.00;;;;;;5032294;28;20543;-64
2022/11/20 05:52:23;;;;;;;2.10;1.30;;;7.00;98.00;;;;;;5031302;28;20457;-64
2022/11/20 05:54:50;;;;;;;1.40;1.10;;;6.90;98.00;;;;;;5031851;28;20471;-64
2022/11/20 05:57:17;;;;;;;1.50;1.37;;;7.00;98.00;;;;;;5032580;28;20457;-64
2022/11/20 05:59:45;;;;;;;3.03;1.87;;;7.00;98.00;;;;;;5032481;28;20459;-64
2022/11/20 06:02:13;;;;;;;2.37;1.20;;;7.00;98.00;;;;;;5032225;28;20840;-64
2022/11/20 06:04:40;;;;;;;1.40;1.20;;;6.90;98.00;;;;;;5032446;28;20463;-64
2022/11/20 06:07:07;;;;;;;2.37;1.63;;;7.00;98.00;;;;;;5032350;28;21472;-64
2022/11/20 06:09:35;;;;;;;2.07;1.40;;;7.00;98.00;;;;;;5032380;28;20459;-64
2022/11/20 06:12:02;;;;;;;1.80;1.40;;;7.00;98.00;;;;;;5032288;28;20470;-64
2022/11/20 06:14:29;;;;;;;1.40;1.20;;;7.00;98.00;;;;;;5033006;28;20835;-64
2022/11/20 06:16:57;;;;;;;1.83;1.20;;;7.10;98.00;;;;;;5032271;28;20458;-64
2022/11/20 06:19:25;;;;;;;1.50;1.17;;;7.10;98.00;;;;;;5032187;28;20470;-64
2022/11/20 06:21:52;;;;;;;1.50;1.10;;;7.00;98.00;;;;;;5032042;28;20823;-64
2022/11/20 06:24:19;;;;;;;1.70;1.57;;;7.10;98.00;;;;;;5032015;28;20496;-64
2022/11/20 06:26:47;;;;;;;3.73;1.40;;;7.20;98.00;;;;;;5031955;28;20463;-64
2022/11/20 06:29:17;;;;;;;1.20;1.00;;;7.10;98.00;;;;;;5031864;28;20456;-64
2022/11/20 06:31:44;;;;;;;1.37;1.17;;;7.20;98.00;;;;;;5032053;28;20851;-64
2022/11/20 06:34:13;;;;;;;1.57;1.33;;;7.20;98.00;;;;;;5031954;28;20550;-64
2022/11/20 06:36:41;;;;;;;2.50;1.97;;;7.10;98.00;;;;;;5031846;28;20572;-64
2022/11/20 06:39:08;;;;;;;1.50;1.40;;;7.10;98.00;;;;;;5031756;28;20968;-64
2022/11/20 06:41:35;;;;;;;1.47;1.17;;;7.10;98.00;;;;;;5031788;28;20852;-64
2022/11/20 06:44:04;;;;;;;1.77;1.60;;;7.10;98.00;;;;;;5030352;28;20491;-64
2022/11/20 06:46:31;;;;;;;1.40;1.40;;;7.10;98.00;;;;;;5031639;28;20461;-64
2022/11/20 06:48:59;;;;;;;1.50;1.30;;;7.10;98.00;;;;;;5030759;28;20506;-64
2022/11/20 06:51:26;;;;;;;2.07;1.27;;;7.20;98.00;;;;;;5031909;28;20552;-64
2022/11/20 06:53:54;;;;;;;1.63;1.30;;;7.20;98.00;;;;;;5030565;28;20463;-64
2022/11/20 06:56:21;;;;;;;2.27;1.90;;;7.30;98.00;;;;;;5031612;28;20461;-64
2022/11/20 06:58:48;;;;;;;1.93;1.67;;;7.30;98.00;;;;;;5031764;28;20455;-64
2022/11/20 07:01:16;;;;;;;2.27;1.70;;;7.30;98.00;;;;;;5031921;28;20852;-64
2022/11/20 07:03:43;;;;;;;2.30;1.60;;;7.30;98.00;;;;;;5031615;28;20801;-64
2022/11/20 07:06:11;;;;;;;1.20;1.13;;;7.30;98.00;;;;;;5033803;28;20454;-64
2022/11/20 07:08:38;;;;;;;2.40;1.57;;;7.20;98.00;;;;;;5035894;28;21002;-64
2022/11/20 07:11:08;;;;;;;1.30;1.10;;;7.20;98.00;;;;;;5035705;28;20461;-64
2022/11/20 07:13:35;;;;;;;1.93;1.90;;;7.20;98.00;;;;;;5035579;28;20549;-64
2022/11/20 07:16:04;;;;;;;3.50;1.50;;;7.20;98.00;;;;;;5035534;28;20462;-64
2022/11/20 07:18:31;;;;;;;1.93;1.47;;;7.30;98.00;;;;;;5035456;28;20851;-64
2022/11/20 07:21:01;;;;;;;1.20;1.17;;;7.30;98.00;;;;;;5035307;28;20861;-64
2022/11/20 07:23:29;;;;;;;1.50;1.40;;;7.30;98.00;;;;;;5035277;28;20867;-64
2022/11/20 07:25:56;;;;;;;1.30;1.20;;;7.30;98.00;;;;;;5035254;28;20455;-64
2022/11/20 07:28:24;;;;;;;1.77;1.57;;;7.30;98.00;;;;;;5035332;28;20456;-64
2022/11/20 07:30:52;;;;;;;3.43;1.30;;;7.20;98.00;;;;;;5035354;28;20512;-64
2022/11/20 07:33:19;;;;;;;1.43;1.30;;;7.20;98.00;;;;;;5034971;28;20458;-64
2022/11/20 07:35:46;;;;;;;1.70;1.40;;;7.30;98.00;;;;;;5035289;28;20933;-64
2022/11/20 07:38:14;;;;;;;1.20;1.10;;;7.30;98.00;;;;;;5033726;28;20458;-64
2022/11/20 07:40:41;;;;;;;1.60;1.20;;;7.30;98.00;;;;;;5035061;28;20463;-64
2022/11/20 07:43:08;;;;;;;2.37;1.40;;;7.40;98.00;;;;;;5033446;28;20487;-64
2022/11/20 07:45:37;;;;;;;1.50;1.20;;;7.40;98.00;;;;;;5035241;28;20474;-64
2022/11/20 07:48:05;;;;;;;1.47;1.30;;;7.40;98.00;;;;;;5034925;28;20488;-64
2022/11/20 07:50:32;;;;;;;2.30;1.63;;;7.50;98.00;;;;;;5034978;28;20451;-64
2022/11/20 07:53:04;;;;;;;1.60;1.27;;;7.50;98.00;;;;;;5034897;28;20792;-64
2022/11/20 07:55:32;;;;;;;2.60;1.57;;;7.50;98.00;;;;;;5035109;28;20500;-64
2022/11/20 07:57:59;;;;;;;1.50;1.30;;;7.60;98.00;;;;;;5034931;28;20840;-64
2022/11/20 08:00:27;;;;;;;2.70;1.30;;;7.50;98.00;;;;;;5035034;28;20504;-64
2022/11/20 08:02:55;;;;;;;1.80;1.20;;;7.60;98.00;;;;;;5034643;28;20481;-64
2022/11/20 08:05:23;;;;;;;1.73;1.30;;;7.50;98.00;;;;;;5034549;28;20457;-64
2022/11/20 08:07:50;;;;;;;1.87;1.23;;;7.40;98.00;;;;;;5034440;28;20502;-64
2022/11/20 08:10:17;;;;;;;1.30;1.10;;;7.50;98.00;;;;;;5034499;28;20464;-64
2022/11/20 08:15:33;;;;;;;1.20;1.07;;;7.50;98.00;;;;;;5034481;28;20469;-64
2022/11/20 08:18:03;;;;;;;1.20;1.00;;;7.60;98.00;;;;;;5033326;28;21126;-64
2022/11/20 08:20:32;;;;;;;1.70;1.30;;;7.60;98.00;;;;;;5034552;28;20863;-64
2022/11/20 08:23:00;;;;;;;1.50;1.23;;;7.60;98.00;;;;;;5034011;28;20483;-64
2022/11/20 08:25:28;;;;;;;3.87;1.90;;;7.60;98.00;;;;;;5034243;28;20487;-64
2022/11/20 08:27:55;;;;;;;3.43;1.60;;;7.50;98.00;;;;;;5033711;28;20474;-61
2022/11/20 08:30:22;;;;;;;1.70;1.10;;;7.50;98.00;;;;;;5030356;28;20480;-60
2022/11/20 08:32:49;;;;;;;1.63;1.10;;;7.60;98.00;;;;;;5014289;28;20518;-60
2022/11/20 08:35:17;;;;;;;2.20;1.50;;;7.50;98.00;;;;;;5014276;28;20963;-60
2022/11/20 08:37:47;;;;;;;2.70;1.27;;;7.60;98.00;;;;;;5014434;28;20525;-60
2022/11/20 08:40:15;;;;;;;2.90;1.63;;;7.50;98.00;;;;;;5014321;28;21065;-61
2022/11/20 08:42:48;;;;;;;1.90;1.50;;;7.50;98.00;;;;;;5013982;28;20497;-60
2022/11/20 08:45:15;;;;;;;1.97;1.50;;;7.50;98.00;;;;;;5014040;28;20470;-61
2022/11/20 08:47:43;;;;;;;1.53;1.20;;;7.60;98.00;;;;;;5014246;28;20460;-60
2022/11/20 08:50:10;;;;;;;1.40;1.20;;;7.50;98.00;;;;;;5029078;28;20467;-61
2022/11/20 08:52:39;;;;;;;2.10;1.77;;;7.60;98.00;;;;;;5014174;28;20989;-60
2022/11/20 08:55:10;;;;;;;2.93;1.53;;;7.70;98.00;;;;;;5014367;28;20466;-60
2022/11/20 08:57:38;;;;;;;1.50;1.20;;;7.60;98.00;;;;;;5014015;28;20457;-60
2022/11/20 09:00:09;;;;;;;1.53;1.40;;;7.80;98.00;;;;;;5013609;28;20484;-61
2022/11/20 09:02:36;;;;;;;1.30;1.20;;;7.80;98.00;;;;;;5013497;28;20466;-61
2022/11/20 09:05:06;;;;;;;2.07;1.37;;;7.90;98.00;;;;;;5013618;28;20953;-61
2022/11/20 09:07:33;;;;;;;1.80;1.17;;;7.90;98.00;;;;;;5013543;28;20463;-61
2022/11/20 09:10:02;;;;;;;1.67;1.50;;;8.00;98.00;;;;;;5013572;28;20445;-61
2022/11/20 09:12:29;;;;;;;2.27;1.70;;;8.00;98.00;;;;;;5013507;28;20469;-61
2022/11/20 09:14:56;;;;;;;1.80;1.37;;;8.10;98.00;;;;;;5015964;28;20514;-60
2022/11/20 09:17:23;;;;;;;1.50;1.20;;;8.00;98.00;;;;;;5031982;28;20848;-61
2022/11/20 09:19:50;;;;;;;6.40;1.50;;;8.10;98.00;;;;;;5032989;28;20456;-61
2022/11/20 09:22:17;;;;;;;1.30;1.30;;;8.20;98.00;;;;;;5033047;28;20469;-61
2022/11/20 09:24:44;;;;;;;1.70;1.30;;;8.30;98.00;;;;;;5033069;28;20488;-61
2022/11/20 09:27:16;;;;;;;1.20;1.10;;;8.40;98.00;;;;;;5033077;28;20515;-61
2022/11/20 09:29:43;;;;;;;1.53;1.37;;;8.30;98.00;;;;;;5033125;28;20465;-61
2022/11/20 09:32:10;;;;;;;2.27;1.30;;;8.20;98.00;;;;;;5032887;28;20479;-61
2022/11/20 09:34:38;;;;;;;2.10;1.37;;;8.10;98.00;;;;;;5032955;28;20863;-61
2022/11/20 09:37:05;;;;;;;1.67;1.30;;;8.00;98.00;;;;;;5031673;28;20466;-62
2022/11/20 09:39:33;;;;;;;1.97;1.43;;;8.00;98.00;;;;;;5033028;28;20807;-62
2022/11/20 09:42:15;;;;;;;1.77;1.30;;;8.10;98.00;;;;;;5018235;28;20463;-63
2022/11/20 09:45:17;;;;;;;1.40;1.00;;;8.10;98.00;;;;;;5009952;28;20582;-62
2022/11/20 09:48:09;;;;;;;1.20;1.10;;;8.00;98.00;;;;;;5010468;28;20460;-62
2022/11/20 09:50:39;;;;;;;1.60;1.30;;;8.00;98.00;;;;;;5008189;28;20828;-63
2022/11/20 09:53:14;;;;;;;1.70;1.40;;;7.90;98.00;;;;;;5010363;28;20977;-62
2022/11/20 09:55:41;;;;;;;1.50;1.10;;;7.90;98.00;;;;;;5009999;28;20478;-62
2022/11/20 09:58:21;;;;;;;3.80;1.60;;;7.90;98.00;;;;;;5010363;28;20475;-57
2022/11/20 10:00:49;;;;;;;1.30;1.00;;;7.80;98.00;;;;;;5003163;28;20526;-62
2022/11/20 10:03:22;;;;;;;1.67;1.10;;;7.80;98.00;;;;;;5009956;28;20863;-62
2022/11/20 10:05:55;;;;;;;1.20;1.10;;;7.90;98.00;;;;;;5009850;28;20473;-62
2022/11/20 10:08:24;;;;;;;1.20;1.00;;;7.90;98.00;;;;;;5009706;28;20468;-62
2022/11/20 10:11:00;;;;;;;1.60;1.17;;;8.00;98.00;;;;;;5009763;28;20476;-62
2022/11/20 10:13:46;;;;;;;1.10;1.00;;;8.00;98.00;;;;;;5009736;28;20460;-62
2022/11/20 10:16:27;;;;;;;2.27;1.20;;;7.90;98.00;;;;;;5009465;28;20460;-62
2022/11/20 10:19:08;;;;;;;1.30;1.10;;;7.90;98.00;;;;;;5012375;28;20469;-62
2022/11/20 10:21:48;;;;;;;1.53;1.20;;;8.00;98.00;;;;;;5026679;28;20591;-62
2022/11/20 10:24:38;;;;;;;1.20;1.10;;;8.10;98.00;;;;;;5012356;28;20488;-62
2022/11/20 10:27:11;;;;;;;1.50;1.30;;;8.10;98.00;;;;;;5012231;28;20462;-62
2022/11/20 10:29:42;;;;;;;1.20;1.10;;;8.10;98.00;;;;;;5012527;28;20461;-62
2022/11/20 10:32:14;;;;;;;1.20;1.00;;;8.10;98.00;;;;;;5012165;28;20466;-62
2022/11/20 10:34:51;;;;;;;1.20;1.10;;;8.10;98.00;;;;;;5012350;28;20459;-62
2022/11/20 10:37:23;;;;;;;7.43;1.33;;;8.10;98.00;;;;;;5011469;28;20510;-62
2022/11/20 10:39:57;;;;;;;1.20;1.00;;;8.00;98.00;;;;;;5011912;28;20461;-62
2022/11/20 10:42:30;;;;;;;1.50;1.30;;;8.00;98.00;;;;;;5012438;28;20465;-61
2022/11/20 10:45:12;;;;;;;1.20;1.03;;;7.90;98.00;;;;;;5012080;28;20583;-62
2022/11/20 10:47:39;;;;;;;1.30;1.30;;;7.90;98.00;;;;;;5011967;28;20468;-62
2022/11/20 10:50:12;;;;;;;1.37;1.23;;;7.90;98.00;;;;;;5011956;28;20466;-62
2022/11/20 10:52:50;;;;;;;1.30;1.10;;;7.90;98.00;;;;;;5012184;28;20477;-62
2022/11/20 10:55:29;;;;;;;1.30;1.20;;;7.90;98.00;;;;;;5011893;28;20819;-62
2022/11/20 10:58:06;;;;;;;1.20;1.10;;;7.90;98.00;;;;;;5027247;28;20468;-62
2022/11/20 11:00:35;;;;;;;1.30;1.03;;;7.90;98.00;;;;;;5011915;28;20458;-62
2022/11/20 11:03:03;;;;;;;1.20;1.00;;;7.80;98.00;;;;;;5011981;28;20461;-62
2022/11/20 11:05:38;;;;;;;1.30;1.10;;;7.80;98.00;;;;;;5011912;28;20916;-62
2022/11/20 11:08:13;;;;;;;1.60;1.17;;;7.80;98.00;;;;;;5011558;28;20498;-62
2022/11/20 11:10:44;;;;;;;1.20;0.90;;;7.80;98.00;;;;;;5011657;28;20566;-62
2022/11/20 11:13:21;;;;;;;1.40;1.30;;;7.80;98.00;;;;;;5011263;28;20470;-61
2022/11/20 11:15:50;;;;;;;1.40;1.10;;;7.70;98.00;;;;;;5011650;28;20467;-62
2022/11/20 11:18:26;;;;;;;1.10;1.00;;;7.80;98.00;;;;;;5011250;28;20463;-62
2022/11/20 11:20:53;;;;;;;1.10;0.90;;;7.70;98.00;;;;;;5011778;28;20946;-62
2022/11/20 11:23:32;;;;;;;2.20;1.10;;;7.70;98.00;;;;;;5011541;28;20466;-62
2022/11/20 11:26:01;;;;;;;1.20;1.00;;;7.70;98.00;;;;;;5011835;28;20463;-62
2022/11/20 11:28:29;;;;;;;1.10;1.00;;;7.80;98.00;;;;;;5011493;28;20507;-62
2022/11/20 11:30:57;;;;;;;1.20;1.00;;;7.80;98.00;;;;;;5011825;28;20473;-62
2022/11/20 11:33:26;;;;;;;1.27;1.10;;;7.70;98.00;;;;;;5011767;28;20468;-62
2022/11/20 11:35:56;;;;;;;1.10;1.00;;;7.70;98.00;;;;;;5011739;28;20467;-62
2022/11/20 11:38:30;;;;;;;1.30;1.30;;;7.70;98.00;;;;;;5011928;28;20460;-62
2022/11/20 11:40:58;;;;;;;1.20;1.10;;;7.70;98.00;;;;;;5011721;28;20502;-62
2022/11/20 11:46:28;;;;;;;1.10;1.00;;;7.60;98.00;;;;;;5011736;28;20453;-62
2022/11/20 11:49:03;;;;;;;1.10;0.90;;;7.50;98.00;;;;;;5011450;28;20855;-62
2022/11/20 11:51:35;;;;;;;1.10;1.00;;;7.60;98.00;;;;;;5026699;28;20456;-62
2022/11/20 11:54:09;;;;;;;1.40;1.03;;;7.80;98.00;;;;;;5015135;28;20947;-62
2022/11/20 11:56:37;;;;;;;1.73;1.00;;;7.90;98.00;;;;;;5014945;28;20939;-62
2022/11/20 11:59:13;;;;;;;1.47;1.00;;;8.00;98.00;;;;;;5014894;28;20454;-62
2022/11/20 12:01:48;;;;;;;1.60;1.30;;;8.00;98.00;;;;;;5014753;28;20467;-62
2022/11/20 12:04:21;;;;;;;2.03;1.20;;;8.10;98.00;;;;;;5014890;28;20571;-61
2022/11/20 12:06:54;;;;;;;1.10;1.00;;;8.30;98.00;;;;;;5014571;28;20457;-62
2022/11/20 12:09:30;;;;;;;1.30;1.20;;;8.80;98.00;;;;;;5014817;28;20472;-62
2022/11/20 12:12:05;;;;;;;3.80;1.40;;;8.90;98.00;;;;;;5014708;28;20465;-62
2022/11/20 12:14:37;;;;;;;2.10;1.30;;;9.00;98.00;;;;;;5014937;28;20520;-62
2022/11/20 12:17:10;;;;;;;1.40;1.30;;;8.90;98.00;;;;;;5014662;28;20462;-62
2022/11/20 12:19:37;;;;;;;1.63;1.33;;;8.90;98.00;;;;;;5016273;28;20971;-62
2022/11/20 12:22:14;;;;;;;1.30;1.13;;;8.80;98.00;;;;;;5022501;28;20456;-62
2022/11/20 12:24:53;;;;;;;1.83;1.10;;;9.00;98.00;;;;;;5014034;28;20479;-62
2022/11/20 12:27:46;;;;;;;1.20;1.03;;;9.30;98.00;;;;;;5013117;28;20469;-62
2022/11/20 12:30:15;;;;;;;1.20;1.10;;;9.80;98.00;;;;;;5017799;28;20460;-62
2022/11/20 12:33:07;;;;;;;1.53;1.20;;;10.20;98.00;;;;;;5013860;28;20467;-62
2022/11/20 12:35:48;;;;;;;2.00;1.20;;;10.60;98.00;;;;;;5012793;28;20832;-62
2022/11/20 12:38:52;;;;;;;1.43;1.07;;;10.90;98.00;;;;;;5013801;28;20482;-62
2022/11/20 12:47:17;;;;;;;1.77;1.27;;;10.10;98.00;;;;;;5013340;28;20448;-62
2022/11/20 12:49:55;;;;;;;1.30;1.10;;;10.00;98.00;;;;;;5013463;28;20479;-62
2022/11/20 12:52:39;;;;;;;1.33;1.20;;;10.40;98.00;;;;;;5013168;28;20471;-62
2022/11/20 12:55:24;;;;;;;2.00;1.50;;;11.30;98.00;;;;;;5013210;28;20513;-62
2022/11/20 12:57:56;;;;;;;1.67;1.30;;;11.60;98.00;;;;;;5013200;28;20462;-62
2022/11/20 13:00:24;;;;;;;1.30;1.03;;;11.50;98.00;;;;;;5013226;28;20505;-62
2022/11/20 13:03:31;;;;;;;1.37;1.20;;;11.70;98.00;;;;;;5012616;28;20466;-62
2022/11/20 13:06:12;;;;;;;1.60;1.37;;;11.50;98.00;;;;;;4991897;28;20493;-62
2022/11/20 13:08:42;;;;;;;2.23;1.50;;;11.20;98.00;;;;;;5012897;28;20494;-62
2022/11/20 13:11:17;;;;;;;1.70;1.23;;;11.10;98.00;;;;;;5012856;28;20463;-62
2022/11/20 13:13:57;;;;;;;1.47;1.20;;;10.90;98.00;;;;;;5012985;28;20629;-62
2022/11/20 13:16:32;;;;;;;2.03;1.20;;;10.70;98.00;;;;;;5013113;28;20495;-62
2022/11/20 13:19:03;;;;;;;1.20;1.00;;;10.40;98.00;;;;;;5012874;28;20459;-62
2022/11/20 13:21:39;;;;;;;1.60;1.23;;;10.20;98.00;;;;;;5012799;28;20466;-62
2022/11/20 13:24:06;;;;;;;1.30;1.10;;;10.20;98.00;;;;;;5012757;28;20494;-62